Ghadamis, Libya
Current Conditions -  °F | °C
As of 7:00 AM on Wednesday 28 Jan 2015 (Local Time) from DAUZ Reporting Station
Clear Clear  
Wind Chill: 34°   Ceiling: Unl
Heat Index: 34°   Visibility: 6mi
Dew Point: 16°   Wind: 3mph
Humidity: 48%   Direction: 230°SW
Pressure: 30.12"   Gusts: NA
Location:  30.13°N, 9.5°E
Report Text: DAUZ 280400Z 23003KT CAVOK 01/M09 Q1020
Loading
Personal Weather Stations






























Interactive Weather Map New forecast layout! Learn more

10-Day Weather Forecast

Advertisements
Track Severe Weather on mobile